createdAt,value
2019-01-30T00:01:14.664Z,9.00
2019-01-30T00:03:44.165Z,7.90
2019-01-30T00:06:13.295Z,8.70
2019-01-30T00:08:42.684Z,9.20
2019-01-30T00:11:12.184Z,8.90
2019-01-30T00:13:41.498Z,8.20
2019-01-30T00:16:10.828Z,8.73
2019-01-30T00:18:40.042Z,8.80
2019-01-30T00:21:09.367Z,9.03
2019-01-30T00:23:38.436Z,10.93
2019-01-30T00:26:07.677Z,9.23
2019-01-30T00:28:36.864Z,9.47
2019-01-30T00:31:06.062Z,8.53
2019-01-30T00:33:35.282Z,7.50
2019-01-30T00:36:04.663Z,8.00
2019-01-30T00:38:33.830Z,8.60
2019-01-30T00:41:02.974Z,7.90
2019-01-30T00:43:32.083Z,7.87
2019-01-30T00:46:01.203Z,8.60
2019-01-30T00:48:30.329Z,7.97
2019-01-30T00:50:59.456Z,7.77
2019-01-30T00:53:28.583Z,7.27
2019-01-30T00:55:57.681Z,7.60
2019-01-30T00:58:26.947Z,8.37
2019-01-30T01:00:56.034Z,8.20
2019-01-30T01:03:25.516Z,7.80
2019-01-30T01:05:54.663Z,7.77
2019-01-30T01:11:04.177Z,8.67
2019-01-30T01:13:33.271Z,8.60
2019-01-30T01:16:02.381Z,7.87
2019-01-30T01:18:31.532Z,8.30
2019-01-30T01:21:00.631Z,7.67
2019-01-30T01:23:29.752Z,8.57
2019-01-30T01:25:58.907Z,8.07
2019-01-30T01:28:28.000Z,9.60
2019-01-30T01:30:57.139Z,8.37
2019-01-30T01:33:28.401Z,7.77
2019-01-30T01:35:57.584Z,8.00
2019-01-30T01:38:26.991Z,7.80
2019-01-30T01:40:56.131Z,7.27
2019-01-30T01:43:25.251Z,8.50
2019-01-30T01:45:54.374Z,8.00
2019-01-30T01:48:23.477Z,7.60
2019-01-30T01:50:52.628Z,7.80
2019-01-30T01:53:21.728Z,8.33
2019-01-30T01:55:51.128Z,8.47
2019-01-30T01:58:20.325Z,8.20
2019-01-30T02:00:49.458Z,7.73
2019-01-30T02:03:18.622Z,7.50
2019-01-30T02:05:47.718Z,7.63
2019-01-30T02:08:16.862Z,8.03
2019-01-30T02:10:45.977Z,8.07
2019-01-30T02:13:15.078Z,7.40
2019-01-30T02:15:44.251Z,7.77
2019-01-30T02:18:13.377Z,7.93
2019-01-30T02:20:42.526Z,7.67
2019-01-30T02:23:11.664Z,8.17
2019-01-30T02:25:40.791Z,7.90
2019-01-30T02:28:09.946Z,8.30
2019-01-30T02:30:47.232Z,8.17
2019-01-30T02:33:09.904Z,7.50
2019-01-30T02:35:39.377Z,7.77
2019-01-30T02:38:08.460Z,8.17
2019-01-30T02:40:37.595Z,8.50
2019-01-30T02:43:06.712Z,8.40
2019-01-30T02:45:35.866Z,9.03
2019-01-30T02:48:05.318Z,8.77
2019-01-30T02:50:35.094Z,8.10
2019-01-30T02:53:04.480Z,8.97
2019-01-30T02:55:33.960Z,8.93
2019-01-30T02:58:03.101Z,9.00
2019-01-30T03:00:33.778Z,8.80
2019-01-30T03:03:02.955Z,8.40
2019-01-30T03:05:32.394Z,8.60
2019-01-30T03:08:01.532Z,9.20
2019-01-30T03:10:30.626Z,8.63
2019-01-30T03:12:59.725Z,9.30
2019-01-30T03:15:29.207Z,8.73
2019-01-30T03:17:58.328Z,9.30
2019-01-30T03:20:27.625Z,8.47
2019-01-30T03:22:57.049Z,9.30
2019-01-30T03:25:26.545Z,9.17
2019-01-30T03:27:55.653Z,9.47
2019-01-30T03:30:29.547Z,9.57
2019-01-30T03:32:59.019Z,8.93
2019-01-30T03:35:28.372Z,10.43
2019-01-30T03:37:57.499Z,9.37
2019-01-30T03:40:26.632Z,8.93
2019-01-30T03:42:55.752Z,12.40
2019-01-30T03:45:25.604Z,11.20
2019-01-30T03:47:54.683Z,10.93
2019-01-30T03:50:23.851Z,10.77
2019-01-30T03:52:52.939Z,11.73
2019-01-30T03:55:22.179Z,11.13
2019-01-30T03:57:51.538Z,10.93
2019-01-30T04:00:22.888Z,11.20
2019-01-30T04:02:52.529Z,10.87
2019-01-30T04:05:21.676Z,10.77
2019-01-30T04:07:50.816Z,10.20
2019-01-30T04:10:21.398Z,9.73
2019-01-30T04:12:50.606Z,10.97
2019-01-30T04:15:19.833Z,11.10
2019-01-30T04:17:49.259Z,10.70
2019-01-30T04:20:19.745Z,10.97
2019-01-30T04:22:48.904Z,11.00
2019-01-30T04:25:18.006Z,11.03
2019-01-30T04:27:47.137Z,10.67
2019-01-30T04:30:21.499Z,10.80
2019-01-30T04:32:50.643Z,10.70
2019-01-30T04:35:19.848Z,11.47
2019-01-30T04:37:48.984Z,12.57
2019-01-30T04:40:19.343Z,12.20
2019-01-30T04:42:48.763Z,11.70
2019-01-30T04:45:20.595Z,11.97
2019-01-30T04:47:49.686Z,13.57
2019-01-30T04:50:18.813Z,12.03
2019-01-30T04:52:48.627Z,10.73
2019-01-30T04:55:18.001Z,12.00
2019-01-30T04:57:47.120Z,12.20
2019-01-30T05:00:19.161Z,12.17
2019-01-30T05:02:48.741Z,13.23
2019-01-30T05:05:18.204Z,12.10
2019-01-30T05:07:47.305Z,11.57
2019-01-30T05:10:16.448Z,13.93
2019-01-30T05:12:45.550Z,12.67
2019-01-30T05:15:16.786Z,12.50
2019-01-30T05:17:46.069Z,11.60
2019-01-30T05:20:16.696Z,10.87
2019-01-30T05:22:46.052Z,10.47
2019-01-30T05:25:15.541Z,11.93
2019-01-30T05:27:44.680Z,12.03
2019-01-30T05:30:23.226Z,11.50
2019-01-30T05:32:52.358Z,11.70
2019-01-30T05:35:21.756Z,11.70
2019-01-30T05:37:51.497Z,11.57
2019-01-30T05:40:20.963Z,11.90
2019-01-30T05:42:50.081Z,13.73
2019-01-30T05:45:19.444Z,11.67
2019-01-30T05:47:48.581Z,11.53
2019-01-30T05:50:18.143Z,13.20
2019-01-30T05:52:47.328Z,12.10
2019-01-30T05:55:16.643Z,12.20
2019-01-30T05:57:46.072Z,12.20
2019-01-30T06:00:28.898Z,12.13
2019-01-30T06:02:58.080Z,12.60
2019-01-30T06:05:27.229Z,13.13
2019-01-30T06:07:56.342Z,12.63
2019-01-30T06:10:25.517Z,13.13
2019-01-30T06:12:54.669Z,14.00
2019-01-30T06:15:23.977Z,14.80
2019-01-30T06:17:53.108Z,14.67
2019-01-30T06:20:24.750Z,14.40
2019-01-30T06:22:54.163Z,15.77
2019-01-30T06:25:23.583Z,16.83
2019-01-30T06:27:52.735Z,20.87
2019-01-30T06:30:22.374Z,21.37
2019-01-30T06:32:51.511Z,19.60
2019-01-30T06:35:20.867Z,22.50
2019-01-30T06:37:50.074Z,19.90
2019-01-30T06:40:21.955Z,19.77
2019-01-30T06:42:51.092Z,16.23
2019-01-30T06:45:22.299Z,17.63
2019-01-30T06:48:06.411Z,17.20
2019-01-30T06:50:36.238Z,16.97
2019-01-30T06:53:05.478Z,17.13
2019-01-30T06:55:34.638Z,17.43
2019-01-30T06:58:04.732Z,17.50
2019-01-30T07:00:33.931Z,17.20
2019-01-30T07:03:03.229Z,16.93
2019-01-30T07:05:32.734Z,16.53
2019-01-30T07:08:01.884Z,15.73
2019-01-30T07:10:31.199Z,14.13
2019-01-30T07:13:00.390Z,14.00
2019-01-30T07:15:30.051Z,13.47
2019-01-30T07:17:59.997Z,13.77
2019-01-30T07:20:31.293Z,14.23
2019-01-30T07:23:00.619Z,16.97
2019-01-30T07:25:30.369Z,20.43
2019-01-30T07:28:02.140Z,18.23
2019-01-30T07:30:35.210Z,13.13
2019-01-30T07:33:04.668Z,15.63
2019-01-30T07:35:34.195Z,14.73
2019-01-30T07:38:03.372Z,13.97
2019-01-30T07:40:32.510Z,13.20
2019-01-30T07:43:01.946Z,13.77
2019-01-30T07:45:31.188Z,15.73
2019-01-30T07:48:02.094Z,14.53
2019-01-30T07:50:31.358Z,14.13
2019-01-30T07:53:00.751Z,14.30
2019-01-30T07:55:30.485Z,15.43
2019-01-30T07:58:00.203Z,14.63
2019-01-30T08:00:31.693Z,13.70
2019-01-30T08:03:01.229Z,14.20
2019-01-30T08:05:30.411Z,14.80
2019-01-30T08:07:59.937Z,15.90
2019-01-30T08:10:29.727Z,17.50
2019-01-30T08:12:58.960Z,14.40
2019-01-30T08:15:29.794Z,12.80
2019-01-30T08:17:58.955Z,11.43
2019-01-30T08:20:28.131Z,11.43
2019-01-30T08:22:57.619Z,10.50
2019-01-30T08:25:26.966Z,10.10
2019-01-30T08:27:56.810Z,9.80
2019-01-30T08:30:28.784Z,10.07
2019-01-30T08:33:04.723Z,9.87
2019-01-30T08:35:31.037Z,9.47
2019-01-30T08:38:00.249Z,10.23
2019-01-30T08:40:29.796Z,11.37
2019-01-30T08:42:59.044Z,10.50
2019-01-30T08:45:30.114Z,9.40
2019-01-30T08:47:59.310Z,10.67
2019-01-30T08:50:29.084Z,10.30
2019-01-30T08:52:58.689Z,10.37
2019-01-30T08:55:27.911Z,10.03
2019-01-30T08:57:57.188Z,9.77
2019-01-30T09:00:27.413Z,10.10
2019-01-30T09:02:56.565Z,10.10
2019-01-30T09:05:26.000Z,9.97
2019-01-30T09:07:55.215Z,9.93
2019-01-30T09:10:25.302Z,10.23
2019-01-30T09:12:54.703Z,10.13
2019-01-30T09:15:25.798Z,10.30
2019-01-30T09:17:55.429Z,9.90
2019-01-30T09:20:24.861Z,9.93
2019-01-30T09:22:55.965Z,10.20
2019-01-30T09:25:27.029Z,10.00
2019-01-30T09:27:58.815Z,10.33
2019-01-30T09:30:30.581Z,10.43
2019-01-30T09:32:59.697Z,9.37
2019-01-30T09:35:28.938Z,9.93
2019-01-30T09:37:58.217Z,10.27
2019-01-30T09:40:27.505Z,10.63
2019-01-30T09:42:59.506Z,9.60
2019-01-30T09:45:30.256Z,9.70
2019-01-30T09:47:59.622Z,9.93
2019-01-30T09:50:41.346Z,9.93
2019-01-30T09:53:10.779Z,9.93
2019-01-30T09:55:43.679Z,9.50
2019-01-30T09:58:17.030Z,9.80
2019-01-30T10:00:51.800Z,9.77
2019-01-30T10:03:21.140Z,8.63
2019-01-30T10:05:58.395Z,9.20
2019-01-30T10:08:34.146Z,9.00
2019-01-30T10:11:05.472Z,9.20
2019-01-30T10:13:38.966Z,8.83
2019-01-30T10:16:11.668Z,9.67
2019-01-30T10:18:48.913Z,9.00
2019-01-30T10:21:18.881Z,8.60
2019-01-30T10:24:57.746Z,9.07
2019-01-30T10:27:03.099Z,8.63
2019-01-30T10:30:07.965Z,8.67
2019-01-30T10:33:14.207Z,9.03
2019-01-30T11:05:01.232Z,8.17
2019-01-30T11:08:38.559Z,7.70
2019-01-30T11:11:23.431Z,7.90
2019-01-30T11:14:08.600Z,10.23
2019-01-30T11:16:42.459Z,8.60
2019-01-30T11:19:19.200Z,7.73
2019-01-30T11:21:59.688Z,7.87
2019-01-30T11:24:45.339Z,6.73
2019-01-30T11:27:19.159Z,6.90
2019-01-30T11:29:48.540Z,6.27
2019-01-30T11:32:24.320Z,6.60
2019-01-30T11:35:14.536Z,6.47
2019-01-30T11:37:40.149Z,7.03
2019-01-30T11:40:32.390Z,6.47
2019-01-30T11:43:03.154Z,7.47
2019-01-30T11:45:38.309Z,7.67
2019-01-30T11:48:15.226Z,7.50
2019-01-30T11:50:50.450Z,7.03
2019-01-30T11:53:21.244Z,6.70
2019-01-30T11:55:58.350Z,7.00
2019-01-30T11:58:48.493Z,7.43
2019-01-30T12:01:23.672Z,6.83
2019-01-30T12:03:55.160Z,6.70
2019-01-30T12:06:26.676Z,7.63
2019-01-30T12:09:05.862Z,9.30
2019-01-30T12:11:39.898Z,10.00
2019-01-30T12:14:34.106Z,9.13
2019-01-30T12:17:25.470Z,8.07
2019-01-30T12:19:56.059Z,7.27
2019-01-30T12:22:32.224Z,7.53
2019-01-30T12:25:08.785Z,7.60
2019-01-30T12:27:54.152Z,6.93
2019-01-30T12:30:50.321Z,6.73
2019-01-30T12:33:23.793Z,7.10
2019-01-30T12:35:52.938Z,6.53
2019-01-30T12:38:22.704Z,6.50
2019-01-30T12:40:51.858Z,6.50
2019-01-30T12:43:20.942Z,7.13
2019-01-30T12:45:50.087Z,6.67
2019-01-30T12:48:19.188Z,6.43
2019-01-30T12:50:48.485Z,6.40
2019-01-30T12:53:17.639Z,6.67
2019-01-30T12:55:46.771Z,6.87
2019-01-30T12:58:15.926Z,7.87
2019-01-30T13:00:46.101Z,8.00
2019-01-30T13:03:15.677Z,6.77
2019-01-30T13:05:46.228Z,7.00
2019-01-30T13:08:15.434Z,7.80
2019-01-30T13:10:44.685Z,7.73
2019-01-30T13:13:14.489Z,6.97
2019-01-30T13:15:43.722Z,7.33
2019-01-30T13:18:18.186Z,7.27
2019-01-30T13:20:44.095Z,7.73
2019-01-30T13:23:13.181Z,6.67
2019-01-30T13:25:42.296Z,7.30
2019-01-30T13:28:11.482Z,7.10
2019-01-30T13:30:43.758Z,8.70
2019-01-30T13:33:12.797Z,8.17
2019-01-30T13:35:41.922Z,7.40
2019-01-30T13:38:11.194Z,8.23
2019-01-30T13:40:42.781Z,8.47
2019-01-30T13:43:11.926Z,8.40
2019-01-30T13:45:41.077Z,8.07
2019-01-30T13:48:15.893Z,8.40
2019-01-30T13:50:45.423Z,7.47
2019-01-30T13:53:14.532Z,7.30
2019-01-30T13:55:43.745Z,7.77
2019-01-30T13:58:12.916Z,9.73
2019-01-30T14:00:42.083Z,7.93
2019-01-30T14:03:11.260Z,7.83
2019-01-30T14:05:40.384Z,7.87
2019-01-30T14:08:11.339Z,8.20
2019-01-30T14:10:40.769Z,10.70
2019-01-30T14:13:09.871Z,7.90
2019-01-30T14:15:39.056Z,13.57
2019-01-30T14:18:08.543Z,8.63
2019-01-30T14:20:37.610Z,8.00
2019-01-30T14:23:07.260Z,8.33
2019-01-30T14:25:36.484Z,7.70
2019-01-30T14:28:05.882Z,8.23
2019-01-30T14:30:37.373Z,8.47
2019-01-30T14:33:06.510Z,8.97
2019-01-30T14:35:38.718Z,8.30
2019-01-30T14:38:07.824Z,8.47
2019-01-30T14:40:36.916Z,8.47
2019-01-30T14:43:06.187Z,8.30
2019-01-30T14:45:35.300Z,8.33
2019-01-30T14:48:04.545Z,8.47
2019-01-30T14:50:33.866Z,8.37
2019-01-30T14:53:03.322Z,8.83
2019-01-30T14:55:32.467Z,8.67
2019-01-30T14:58:01.800Z,8.43
2019-01-30T15:00:32.141Z,9.63
2019-01-30T15:03:01.434Z,8.77
2019-01-30T15:05:31.143Z,8.93
2019-01-30T15:08:00.243Z,8.33
2019-01-30T15:10:30.170Z,8.73
2019-01-30T15:12:59.249Z,8.87
2019-01-30T15:15:30.191Z,12.25
2019-01-30T15:17:59.312Z,9.47
2019-01-30T15:20:33.165Z,10.77
2019-01-30T15:23:03.045Z,9.40
2019-01-30T15:25:32.640Z,10.17
2019-01-30T15:28:02.263Z,8.83
2019-01-30T15:30:36.566Z,8.10
2019-01-30T15:33:06.222Z,8.17
2019-01-30T15:35:35.359Z,8.30
2019-01-30T15:38:06.610Z,8.53
2019-01-30T15:40:35.775Z,8.33
2019-01-30T15:43:05.096Z,7.97
2019-01-30T15:45:34.412Z,8.07
2019-01-30T15:48:03.621Z,9.40
2019-01-30T15:50:33.851Z,10.20
2019-01-30T15:53:05.457Z,14.40
2019-01-30T15:55:34.571Z,9.73
2019-01-30T15:58:07.080Z,9.67
2019-01-30T16:00:47.666Z,11.20
2019-01-30T16:03:16.801Z,9.60
2019-01-30T16:05:45.898Z,7.67
2019-01-30T16:08:15.133Z,8.60
2019-01-30T16:10:44.220Z,7.87
2019-01-30T16:13:13.384Z,8.10
2019-01-30T16:15:45.865Z,8.33
2019-01-30T16:18:15.078Z,7.50
2019-01-30T16:20:44.175Z,8.40
2019-01-30T16:23:13.586Z,8.20
2019-01-30T16:25:42.727Z,8.40
2019-01-30T16:28:12.188Z,8.47
2019-01-30T16:30:42.343Z,8.77
2019-01-30T16:33:11.714Z,8.60
2019-01-30T16:35:40.858Z,9.03
2019-01-30T16:38:10.625Z,8.37
2019-01-30T16:40:39.794Z,8.37
2019-01-30T16:43:09.118Z,9.37
2019-01-30T16:45:38.626Z,8.90
2019-01-30T16:48:08.693Z,8.40
2019-01-30T16:50:37.857Z,9.60
2019-01-30T16:53:08.659Z,12.90
2019-01-30T16:55:38.160Z,13.77
2019-01-30T16:58:09.328Z,11.87
2019-01-30T17:00:38.608Z,10.87
2019-01-30T17:03:07.950Z,11.20
2019-01-30T17:05:37.305Z,10.80
2019-01-30T17:08:07.182Z,11.30
2019-01-30T17:10:36.375Z,10.77
2019-01-30T17:13:06.863Z,9.97
2019-01-30T17:15:36.404Z,11.00
2019-01-30T17:18:06.368Z,9.60
2019-01-30T17:20:36.788Z,11.47
2019-01-30T17:23:06.147Z,10.73
2019-01-30T17:25:36.069Z,10.60
2019-01-30T17:28:05.626Z,11.67
2019-01-30T17:30:58.120Z,13.63
2019-01-30T17:33:27.438Z,13.37
2019-01-30T17:35:56.834Z,12.47
2019-01-30T17:38:26.074Z,12.50
2019-01-30T17:40:55.322Z,11.83
2019-01-30T17:43:24.611Z,11.80
2019-01-30T17:45:53.907Z,13.10
2019-01-30T17:48:23.267Z,11.43
2019-01-30T17:50:52.542Z,11.87
2019-01-30T17:53:21.822Z,11.83
2019-01-30T17:55:51.400Z,11.47
2019-01-30T17:58:20.548Z,13.80
2019-01-30T18:00:58.875Z,15.27
2019-01-30T18:03:28.321Z,14.73
2019-01-30T18:05:57.619Z,13.80
2019-01-30T18:08:26.680Z,13.50
2019-01-30T18:10:55.818Z,14.20
2019-01-30T18:13:24.939Z,13.40
2019-01-30T18:15:54.097Z,16.70
2019-01-30T18:18:23.298Z,16.13
2019-01-30T18:20:52.544Z,15.73
2019-01-30T18:23:21.699Z,16.80
2019-01-30T18:25:50.855Z,14.87
2019-01-30T18:28:19.994Z,20.30
2019-01-30T18:30:49.090Z,23.60
2019-01-30T18:33:18.210Z,19.53
2019-01-30T18:35:47.315Z,38.00
2019-01-30T18:38:16.677Z,25.07
2019-01-30T18:40:45.814Z,20.00
2019-01-30T18:43:15.094Z,20.17
2019-01-30T18:45:44.219Z,18.50
2019-01-30T18:48:13.466Z,19.07
2019-01-30T18:50:45.608Z,19.00
2019-01-30T18:53:13.934Z,18.37
2019-01-30T18:55:43.066Z,19.20
2019-01-30T18:58:12.217Z,17.03
2019-01-30T19:00:44.028Z,17.73
2019-01-30T19:03:15.533Z,14.50
2019-01-30T19:05:44.820Z,14.73
2019-01-30T19:08:13.932Z,16.57
2019-01-30T19:10:43.249Z,15.90
2019-01-30T19:13:13.090Z,16.93
2019-01-30T19:15:42.425Z,16.70
2019-01-30T19:18:14.106Z,15.83
2019-01-30T19:20:45.595Z,16.07
2019-01-30T19:23:14.721Z,16.33
2019-01-30T19:25:43.999Z,18.40
2019-01-30T19:28:16.113Z,19.23
2019-01-30T19:30:45.214Z,19.13
2019-01-30T19:33:14.822Z,14.70
2019-01-30T19:35:44.058Z,13.33
2019-01-30T19:38:13.358Z,15.10
2019-01-30T19:40:45.259Z,14.60
2019-01-30T19:43:14.513Z,14.50
2019-01-30T19:45:43.645Z,13.83
2019-01-30T19:48:13.343Z,14.17
2019-01-30T19:50:42.582Z,14.60
2019-01-30T19:53:11.673Z,13.20
2019-01-30T19:55:40.797Z,13.77
2019-01-30T19:58:12.147Z,13.50
2019-01-30T20:00:46.112Z,13.43
2019-01-30T20:03:21.101Z,11.77
2019-01-30T20:05:50.599Z,11.90
2019-01-30T20:08:20.171Z,10.70
2019-01-30T20:10:49.429Z,10.40
2019-01-30T20:13:18.740Z,10.43
2019-01-30T20:15:47.845Z,9.97
2019-01-30T20:18:17.097Z,10.23
2019-01-30T20:20:46.528Z,10.47
2019-01-30T20:23:17.456Z,10.03
2019-01-30T20:25:46.746Z,9.50
2019-01-30T20:28:16.227Z,9.43
2019-01-30T20:30:45.409Z,9.10
2019-01-30T20:33:14.930Z,9.77
2019-01-30T20:35:46.890Z,10.03
2019-01-30T20:38:15.980Z,9.80
2019-01-30T20:40:45.256Z,10.60
2019-01-30T20:43:14.855Z,8.77
2019-01-30T20:45:44.048Z,9.33
2019-01-30T20:48:13.433Z,10.67
2019-01-30T20:50:44.531Z,10.60
2019-01-30T20:53:17.926Z,9.93
2019-01-30T20:55:47.406Z,11.80
2019-01-30T20:58:16.777Z,15.07
2019-01-30T21:00:46.542Z,15.57
2019-01-30T21:03:17.407Z,12.60
2019-01-30T21:05:46.553Z,19.40
2019-01-30T21:08:17.893Z,17.20
2019-01-30T21:10:49.062Z,11.23
2019-01-30T21:13:19.030Z,10.17
2019-01-30T21:15:50.744Z,10.47
2019-01-30T21:18:21.346Z,9.70
2019-01-30T21:20:50.928Z,9.33
2019-01-30T21:23:20.044Z,10.33
2019-01-30T21:25:50.045Z,10.60
2019-01-30T21:28:19.291Z,10.67
2019-01-30T21:30:48.446Z,10.63
2019-01-30T21:33:17.558Z,11.50
2019-01-30T21:35:46.700Z,11.80
2019-01-30T21:38:15.841Z,11.50
2019-01-30T21:40:45.002Z,11.47
2019-01-30T21:43:14.150Z,10.83
2019-01-30T21:45:43.584Z,10.80
2019-01-30T21:48:12.669Z,11.77
2019-01-30T21:50:41.810Z,12.07
2019-01-30T21:53:10.902Z,10.97
2019-01-30T21:55:40.035Z,10.13
2019-01-30T21:58:09.379Z,11.97
2019-01-30T22:00:38.532Z,11.43
2019-01-30T22:03:07.639Z,11.00
2019-01-30T22:05:36.789Z,10.80
2019-01-30T22:08:06.167Z,10.23
2019-01-30T22:10:35.249Z,9.60
2019-01-30T22:13:04.810Z,9.87
2019-01-30T22:15:33.939Z,9.37
2019-01-30T22:18:03.093Z,9.37
2019-01-30T22:20:32.207Z,9.47
2019-01-30T22:23:01.361Z,8.80
2019-01-30T22:25:30.612Z,9.13
2019-01-30T22:27:59.774Z,8.83
2019-01-30T22:30:31.161Z,9.27
2019-01-30T22:33:00.529Z,8.30
2019-01-30T22:35:29.659Z,9.77
2019-01-30T22:37:58.878Z,10.13
2019-01-30T22:40:28.026Z,10.30
2019-01-30T22:42:57.473Z,9.60
2019-01-30T22:45:26.824Z,9.60
2019-01-30T22:47:55.898Z,10.40
2019-01-30T22:50:25.112Z,10.77
2019-01-30T22:52:54.237Z,11.00
2019-01-30T22:55:24.062Z,11.53
2019-01-30T22:57:53.214Z,11.43
2019-01-30T23:00:58.338Z,11.67
2019-01-30T23:03:53.299Z,11.80
2019-01-30T23:06:43.955Z,11.57
2019-01-30T23:10:09.470Z,11.87
2019-01-30T23:13:18.605Z,11.47
2019-01-30T23:16:03.674Z,11.53
2019-01-30T23:19:03.530Z,11.77
2019-01-30T23:21:39.559Z,12.27
2019-01-30T23:24:52.192Z,11.87
2019-01-30T23:27:30.611Z,12.47
2019-01-30T23:30:38.461Z,13.00
2019-01-30T23:33:38.004Z,12.20
2019-01-30T23:36:34.351Z,14.00
2019-01-30T23:39:59.648Z,12.47
2019-01-30T23:42:39.041Z,12.47
2019-01-30T23:45:39.879Z,13.07
2019-01-30T23:48:51.414Z,11.27
2019-01-30T23:51:43.246Z,12.50
2019-01-30T23:54:22.976Z,11.23
2019-01-30T23:57:21.875Z,12.83
